createdAt,value
2018-07-04T00:00:18.586Z,101285.94
2018-07-04T00:02:59.046Z,101288.64
2018-07-04T00:05:39.697Z,101281.69
2018-07-04T00:08:20.248Z,101284.48
2018-07-04T00:11:00.710Z,101278.00
2018-07-04T00:13:42.641Z,101280.30
2018-07-04T00:16:23.084Z,101285.92
2018-07-04T00:19:03.739Z,101278.51
2018-07-04T00:21:44.245Z,101276.55
2018-07-04T00:24:25.072Z,101277.78
2018-07-04T00:27:05.952Z,101284.95
2018-07-04T00:29:46.694Z,101282.02
2018-07-04T00:32:27.214Z,101284.91
2018-07-04T00:35:09.311Z,101295.66
2018-07-04T00:37:49.948Z,101293.25
2018-07-04T00:40:30.962Z,101291.59
2018-07-04T00:43:11.526Z,101290.56
2018-07-04T00:45:52.778Z,101294.91
2018-07-04T00:48:33.273Z,101283.36
2018-07-04T00:51:13.823Z,101284.40
2018-07-04T00:53:54.501Z,101283.74
2018-07-04T00:56:35.131Z,101282.28
2018-07-04T00:59:15.694Z,101287.95
2018-07-04T01:01:57.855Z,101278.44
2018-07-04T01:04:38.259Z,101275.14
2018-07-04T01:07:18.951Z,101275.09
2018-07-04T01:09:59.348Z,101271.59
2018-07-04T01:12:40.037Z,101273.38
2018-07-04T01:15:20.395Z,101269.11
2018-07-04T01:18:00.798Z,101270.80
2018-07-04T01:20:46.704Z,101273.62
2018-07-04T01:23:27.076Z,101275.21
2018-07-04T01:26:07.714Z,101271.17
2018-07-04T01:28:48.345Z,101281.06
2018-07-04T01:31:28.976Z,101277.33
2018-07-04T01:34:10.598Z,101274.45
2018-07-04T01:36:51.087Z,101275.45
2018-07-04T01:39:32.097Z,101275.75
2018-07-04T01:42:12.659Z,101275.38
2018-07-04T01:44:53.384Z,101272.69
2018-07-04T01:47:34.037Z,101268.80
2018-07-04T01:50:14.566Z,101274.04
2018-07-04T01:52:54.889Z,101269.33
2018-07-04T01:55:35.550Z,101274.33
2018-07-04T01:58:16.214Z,101272.73
2018-07-04T02:00:56.534Z,101272.00
2018-07-04T02:03:37.126Z,101278.31
2018-07-04T02:06:18.497Z,101277.58
2018-07-04T02:08:59.093Z,101272.57
2018-07-04T02:11:39.652Z,101275.09
2018-07-04T02:14:20.394Z,101275.86
2018-07-04T02:17:00.982Z,101275.25
2018-07-04T02:19:41.691Z,101274.12
2018-07-04T02:22:22.459Z,101277.41
2018-07-04T02:25:03.089Z,101269.18
2018-07-04T02:27:43.922Z,101277.81
2018-07-04T02:30:24.340Z,101270.16
2018-07-04T02:33:05.328Z,101279.53
2018-07-04T02:35:45.863Z,101272.22
2018-07-04T02:38:26.464Z,101277.46
2018-07-04T02:41:07.126Z,101268.73
2018-07-04T02:43:47.947Z,101265.81
2018-07-04T02:46:33.862Z,101257.16
2018-07-04T02:49:14.445Z,101260.95
2018-07-04T02:51:55.034Z,101258.67
2018-07-04T02:54:35.564Z,101247.53
2018-07-04T02:57:16.185Z,101254.11
2018-07-04T02:59:56.870Z,101253.14
2018-07-04T03:02:37.542Z,101263.50
2018-07-04T03:05:19.233Z,101260.22
2018-07-04T03:07:59.856Z,101258.97
2018-07-04T03:10:40.527Z,101254.28
2018-07-04T03:13:21.066Z,101257.86
2018-07-04T03:16:02.739Z,101253.38
2018-07-04T03:18:43.427Z,101264.23
2018-07-04T03:21:24.245Z,101252.77
2018-07-04T03:24:05.100Z,101254.28
2018-07-04T03:26:46.472Z,101261.55
2018-07-04T03:29:27.094Z,101253.38
2018-07-04T03:32:07.679Z,101249.12
2018-07-04T03:34:48.373Z,101244.23
2018-07-04T03:37:29.730Z,101245.27
2018-07-04T03:40:10.674Z,101247.58
2018-07-04T03:42:51.230Z,101251.41
2018-07-04T03:45:31.833Z,101244.17
2018-07-04T03:48:12.342Z,101247.39
2018-07-04T03:50:52.797Z,101247.88
2018-07-04T03:53:33.363Z,101255.25
2018-07-04T03:56:13.963Z,101250.52
2018-07-04T03:58:56.015Z,101246.30
2018-07-04T04:01:36.428Z,101256.44
2018-07-04T04:04:17.256Z,101262.78
2018-07-04T04:06:57.719Z,101266.92
2018-07-04T04:09:38.313Z,101258.67
2018-07-04T04:12:18.786Z,101266.25
2018-07-04T04:15:00.101Z,101260.88
2018-07-04T04:17:40.749Z,101266.01
2018-07-04T04:20:22.878Z,101260.32
2018-07-04T04:23:03.341Z,101264.84
2018-07-04T04:25:44.614Z,101257.56
2018-07-04T04:28:25.455Z,101257.49
2018-07-04T04:31:06.566Z,101259.56
2018-07-04T04:33:47.240Z,101253.38
2018-07-04T04:36:27.990Z,101255.01
2018-07-04T04:39:08.712Z,101256.84
2018-07-04T04:41:49.513Z,101247.84
2018-07-04T04:44:29.976Z,101248.59
2018-07-04T04:47:11.991Z,101254.61
2018-07-04T04:49:52.553Z,101257.71
2018-07-04T04:52:33.140Z,101263.34
2018-07-04T04:55:14.252Z,101270.69
2018-07-04T04:57:57.733Z,101265.20
2018-07-04T05:00:38.553Z,101261.77
2018-07-04T05:03:19.334Z,101259.32
2018-07-04T05:05:59.840Z,101264.84
2018-07-04T05:08:41.191Z,101265.06
2018-07-04T05:11:22.149Z,101270.00
2018-07-04T05:14:03.652Z,101261.20
2018-07-04T05:16:44.547Z,101258.96
2018-07-04T05:19:25.320Z,101256.45
2018-07-04T05:22:05.746Z,101247.59
2018-07-04T05:24:47.469Z,101250.54
2018-07-04T05:27:28.193Z,101257.91
2018-07-04T05:30:09.082Z,101252.06
2018-07-04T05:32:49.889Z,101253.81
2018-07-04T05:35:30.531Z,101256.63
2018-07-04T05:38:11.282Z,101264.41
2018-07-04T05:40:52.748Z,101252.48
2018-07-04T05:43:33.119Z,101257.34
2018-07-04T05:46:15.130Z,101255.70
2018-07-04T05:48:55.541Z,101259.01
2018-07-04T05:51:36.453Z,101261.80
2018-07-04T05:54:17.245Z,101255.77
2018-07-04T05:56:58.210Z,101266.56
2018-07-04T05:59:38.783Z,101252.45
2018-07-04T06:02:19.531Z,101251.53
2018-07-04T06:05:00.146Z,101253.66
2018-07-04T06:07:40.917Z,101254.00
2018-07-04T06:10:21.691Z,101247.61
2018-07-04T06:13:02.161Z,101243.06
2018-07-04T06:15:42.867Z,101239.36
2018-07-04T06:18:23.760Z,101247.89
2018-07-04T06:21:04.268Z,101248.62
2018-07-04T06:23:45.342Z,101245.97
2018-07-04T06:26:26.010Z,101244.48
2018-07-04T06:29:07.382Z,101251.05
2018-07-04T06:31:48.198Z,101253.42
2018-07-04T06:34:28.826Z,101255.63
2018-07-04T06:37:09.687Z,101256.78
2018-07-04T06:39:38.147Z,101253.57
2018-07-04T06:42:06.456Z,101256.48
2018-07-04T06:44:34.697Z,101247.30
2018-07-04T06:47:03.092Z,101259.22
2018-07-04T06:49:31.178Z,101250.41
2018-07-04T06:51:59.276Z,101244.61
2018-07-04T06:54:27.436Z,101245.31
2018-07-04T06:56:55.522Z,101245.81
2018-07-04T06:59:23.794Z,101249.34
2018-07-04T07:01:52.035Z,101250.93
2018-07-04T07:04:32.585Z,101244.67
2018-07-04T07:07:13.286Z,101246.95
2018-07-04T07:09:53.952Z,101247.41
2018-07-04T07:12:34.976Z,101244.71
2018-07-04T07:15:15.572Z,101233.77
2018-07-04T07:17:56.034Z,101234.64
2018-07-04T07:20:36.973Z,101238.36
2018-07-04T07:23:17.998Z,101234.75
2018-07-04T07:25:58.570Z,101231.83
2018-07-04T07:28:39.648Z,101240.75
2018-07-04T07:31:20.124Z,101240.52
2018-07-04T07:34:00.913Z,101239.71
2018-07-04T07:36:41.523Z,101243.74
2018-07-04T07:39:22.908Z,101241.66
2018-07-04T07:42:04.017Z,101248.03
2018-07-04T07:44:45.684Z,101238.68
2018-07-04T07:47:26.576Z,101229.13
2018-07-04T07:50:08.760Z,101231.13
2018-07-04T07:52:49.773Z,101228.23
2018-07-04T07:55:30.692Z,101237.83
2018-07-04T07:58:11.515Z,101243.31
2018-07-04T08:00:52.006Z,101238.72
2018-07-04T08:03:32.708Z,101235.42
2018-07-04T08:06:13.388Z,101237.13
2018-07-04T08:08:54.137Z,101234.14
2018-07-04T08:11:35.427Z,101227.35
2018-07-04T08:14:16.180Z,101221.44
2018-07-04T08:16:57.894Z,101218.34
2018-07-04T08:19:39.202Z,101219.16
2018-07-04T08:22:21.078Z,101214.64
2018-07-04T08:25:01.624Z,101218.34
2018-07-04T08:27:43.893Z,101223.48
2018-07-04T08:30:24.438Z,101221.16
2018-07-04T08:33:05.742Z,101220.35
2018-07-04T08:35:46.793Z,101222.77
2018-07-04T08:38:28.030Z,101221.09
2018-07-04T08:41:10.029Z,101222.07
2018-07-04T08:43:51.287Z,101221.53
2018-07-04T08:46:32.350Z,101214.25
2018-07-04T08:49:13.338Z,101217.83
2018-07-04T08:51:53.787Z,101222.94
2018-07-04T08:54:34.651Z,101231.29
2018-07-04T08:57:15.212Z,101232.30
2018-07-04T08:59:55.802Z,101236.08
2018-07-04T09:02:36.548Z,101227.11
2018-07-04T09:05:17.417Z,101225.06
2018-07-04T09:07:58.205Z,101226.45
2018-07-04T09:10:38.978Z,101228.36
2018-07-04T09:13:19.734Z,101227.83
2018-07-04T09:16:00.265Z,101218.92
2018-07-04T09:18:40.649Z,101216.91
2018-07-04T09:21:21.684Z,101212.92
2018-07-04T09:24:02.387Z,101215.63
2018-07-04T09:26:42.702Z,101216.16
2018-07-04T09:29:23.412Z,101215.31
2018-07-04T09:32:04.086Z,101209.55
2018-07-04T09:34:44.713Z,101216.22
2018-07-04T09:37:25.626Z,101213.95
2018-07-04T09:40:06.319Z,101217.69
2018-07-04T09:42:48.094Z,101220.73
2018-07-04T09:45:29.002Z,101225.23
2018-07-04T09:48:10.361Z,101227.42
2018-07-04T09:50:51.106Z,101218.55
2018-07-04T09:53:32.337Z,101219.29
2018-07-04T09:56:12.730Z,101215.97
2018-07-04T09:58:53.826Z,101211.17
2018-07-04T10:01:34.251Z,101208.28
2018-07-04T10:04:14.816Z,101207.61
2018-07-04T10:06:55.614Z,101209.38
2018-07-04T10:09:38.509Z,101205.81
2018-07-04T10:12:19.256Z,101204.21
2018-07-04T10:15:01.276Z,101203.93
2018-07-04T10:17:41.679Z,101196.29
2018-07-04T10:20:24.328Z,101194.76
2018-07-04T10:23:04.992Z,101199.27
2018-07-04T10:25:45.962Z,101204.11
2018-07-04T10:28:26.895Z,101196.55
2018-07-04T10:31:07.614Z,101197.66
2018-07-04T10:33:48.629Z,101195.03
2018-07-04T10:36:29.738Z,101191.27
2018-07-04T10:39:10.408Z,101192.31
2018-07-04T10:41:52.269Z,101187.56
2018-07-04T10:44:32.890Z,101186.90
2018-07-04T10:47:14.561Z,101189.61
2018-07-04T10:49:55.310Z,101183.83
2018-07-04T10:52:35.867Z,101183.48
2018-07-04T10:55:16.743Z,101190.23
2018-07-04T10:57:57.587Z,101183.61
2018-07-04T11:00:39.064Z,101190.78
2018-07-04T11:03:19.783Z,101191.30
2018-07-04T11:06:00.483Z,101193.66
2018-07-04T11:08:41.186Z,101184.52
2018-07-04T11:11:21.913Z,101193.47
2018-07-04T11:14:02.806Z,101191.34
2018-07-04T11:16:43.381Z,101189.95
2018-07-04T11:19:24.391Z,101182.06
2018-07-04T11:22:04.908Z,101179.52
2018-07-04T11:24:46.333Z,101176.59
2018-07-04T11:27:27.052Z,101180.09
2018-07-04T11:30:08.435Z,101172.64
2018-07-04T11:32:49.049Z,101173.75
2018-07-04T11:35:30.857Z,101173.16
2018-07-04T11:38:11.403Z,101174.03
2018-07-04T11:40:52.855Z,101162.20
2018-07-04T11:43:33.162Z,101162.75
2018-07-04T11:46:01.348Z,101164.63
2018-07-04T11:48:29.525Z,101160.19
2018-07-04T11:50:57.851Z,101167.22
2018-07-04T11:53:26.836Z,101159.05
2018-07-04T11:55:55.002Z,101158.45
2018-07-04T11:58:23.173Z,101160.87
2018-07-04T12:00:51.480Z,101163.78
2018-07-04T12:03:22.102Z,101163.46
2018-07-04T12:06:04.369Z,101158.50
2018-07-04T12:08:32.531Z,101146.71
2018-07-04T12:11:00.692Z,101156.10
2018-07-04T12:13:29.395Z,101156.16
2018-07-04T12:15:57.594Z,101160.26
2018-07-04T12:18:25.799Z,101160.81
2018-07-04T12:20:54.920Z,101159.20
2018-07-04T12:23:23.316Z,101152.83
2018-07-04T12:25:51.687Z,101162.52
2018-07-04T12:28:20.549Z,101154.41
2018-07-04T12:30:50.036Z,101148.73
2018-07-04T12:33:18.452Z,101150.48
2018-07-04T12:35:46.986Z,101152.70
2018-07-04T12:38:15.219Z,101156.91
2018-07-04T12:40:43.370Z,101153.78
2018-07-04T12:43:11.556Z,101158.27
2018-07-04T12:45:39.826Z,101160.21
2018-07-04T12:48:07.763Z,101153.17
2018-07-04T12:50:36.180Z,101149.95
2018-07-04T12:53:04.379Z,101148.09
2018-07-04T12:56:47.969Z,101148.92
2018-07-04T12:59:28.652Z,101141.97
2018-07-04T13:02:09.477Z,101140.02
2018-07-04T13:04:50.466Z,101141.38
2018-07-04T13:07:31.334Z,101137.69
2018-07-04T13:10:12.225Z,101126.88
2018-07-04T13:12:53.746Z,101127.52
2018-07-04T13:15:34.247Z,101126.71
2018-07-04T13:18:14.888Z,101121.75
2018-07-04T13:20:56.011Z,101124.37
2018-07-04T13:23:37.704Z,101121.64
2018-07-04T13:26:18.428Z,101120.20
2018-07-04T13:29:00.253Z,101133.16
2018-07-04T13:31:40.929Z,101127.46
2018-07-04T13:34:21.799Z,101124.91
2018-07-04T13:37:02.677Z,101114.39
2018-07-04T13:39:43.361Z,101123.62
2018-07-04T13:42:23.925Z,101118.61
2018-07-04T13:45:04.690Z,101117.84
2018-07-04T13:47:45.488Z,101108.14
2018-07-04T13:50:27.393Z,101110.14
2018-07-04T13:53:08.021Z,101105.27
2018-07-04T13:55:49.002Z,101103.47
2018-07-04T13:58:30.008Z,101092.81
2018-07-04T14:01:10.496Z,101091.48
2018-07-04T14:03:52.170Z,101088.98
2018-07-04T14:06:34.109Z,101081.72
2018-07-04T14:09:14.690Z,101073.92
2018-07-04T14:11:55.720Z,101080.45
2018-07-04T14:14:36.203Z,101073.54
2018-07-04T14:17:17.033Z,101070.70
2018-07-04T14:19:57.748Z,101070.80
2018-07-04T14:22:39.523Z,101064.16
2018-07-04T14:25:20.170Z,101066.45
2018-07-04T14:28:00.634Z,101072.73
2018-07-04T14:30:41.328Z,101064.41
2018-07-04T14:33:22.096Z,101067.47
2018-07-04T14:36:03.437Z,101063.19
2018-07-04T14:38:45.023Z,101065.22
2018-07-04T14:41:25.765Z,101064.50
2018-07-04T14:44:07.088Z,101077.89
2018-07-04T14:46:48.682Z,101072.39
2018-07-04T14:49:29.344Z,101068.06
2018-07-04T14:52:10.055Z,101073.31
2018-07-04T14:54:50.601Z,101063.66
2018-07-04T14:57:31.893Z,101067.16
2018-07-04T15:00:12.832Z,101068.77
2018-07-04T15:02:53.490Z,101065.70
2018-07-04T15:05:34.488Z,101065.05
2018-07-04T15:08:14.969Z,101061.33
2018-07-04T15:10:56.906Z,101059.64
2018-07-04T15:13:37.754Z,101062.05
2018-07-04T15:16:18.592Z,101054.79
2018-07-04T15:18:59.711Z,101050.13
2018-07-04T15:21:40.290Z,101043.66
2018-07-04T15:24:21.332Z,101045.83
2018-07-04T15:27:02.450Z,101044.51
2018-07-04T15:29:43.206Z,101046.00
2018-07-04T15:32:24.098Z,101035.47
2018-07-04T15:35:04.553Z,101038.17
2018-07-04T15:37:45.030Z,101037.09
2018-07-04T15:40:25.895Z,101036.56
2018-07-04T15:43:07.056Z,101043.52
2018-07-04T15:45:47.554Z,101034.25
2018-07-04T15:48:28.305Z,101035.06
2018-07-04T15:51:08.912Z,101028.28
2018-07-04T15:53:49.692Z,101030.81
2018-07-04T15:56:30.211Z,101031.55
2018-07-04T15:59:12.751Z,101028.14
2018-07-04T16:01:53.492Z,101027.72
2018-07-04T16:04:35.359Z,101029.98
2018-07-04T16:07:16.175Z,101036.50
2018-07-04T16:09:58.208Z,101039.61
2018-07-04T16:12:38.810Z,101027.30
2018-07-04T16:15:20.327Z,101026.55
2018-07-04T16:18:01.213Z,101018.53
2018-07-04T16:20:42.758Z,101024.59
2018-07-04T16:23:23.534Z,101018.95
2018-07-04T16:26:04.292Z,101022.84
2018-07-04T16:28:44.915Z,101025.77
2018-07-04T16:31:25.782Z,101022.48
2018-07-04T16:34:06.238Z,101015.52
2018-07-04T16:36:46.933Z,101016.87
2018-07-04T16:39:27.330Z,101019.34
2018-07-04T16:42:07.924Z,101013.09
2018-07-04T16:44:50.152Z,101021.30
2018-07-04T16:47:31.052Z,101016.77
2018-07-04T16:50:11.809Z,101013.45
2018-07-04T16:52:52.581Z,101015.05
2018-07-04T16:55:33.112Z,101011.06
2018-07-04T16:58:14.619Z,101015.36
2018-07-04T17:00:55.990Z,101020.14
2018-07-04T17:03:36.747Z,101023.19
2018-07-04T17:06:17.345Z,101016.57
2018-07-04T17:08:58.622Z,101015.33
2018-07-04T17:11:39.395Z,101009.03
2018-07-04T17:14:20.260Z,101010.36
2018-07-04T17:17:01.115Z,101010.33
2018-07-04T17:19:42.156Z,101011.36
2018-07-04T17:22:23.143Z,101004.80
2018-07-04T17:25:03.822Z,101002.97
2018-07-04T17:27:44.341Z,101007.09
2018-07-04T17:30:26.492Z,101008.39
2018-07-04T17:33:07.220Z,101007.12
2018-07-04T17:35:47.832Z,101004.47
2018-07-04T17:38:28.892Z,101005.84
2018-07-04T17:41:10.803Z,101006.75
2018-07-04T17:43:51.702Z,101002.95
2018-07-04T17:46:32.453Z,101006.33
2018-07-04T17:49:12.977Z,101000.66
2018-07-04T17:51:54.498Z,100998.63
2018-07-04T17:54:35.218Z,100997.63
2018-07-04T17:57:17.291Z,100998.05
2018-07-04T17:59:58.247Z,101003.11
2018-07-04T18:02:38.822Z,101009.13
2018-07-04T18:05:20.592Z,100994.73
2018-07-04T18:08:02.704Z,101000.59
2018-07-04T18:10:43.300Z,100990.95
2018-07-04T18:13:24.515Z,100993.81
2018-07-04T18:16:05.243Z,100992.58
2018-07-04T18:18:46.135Z,100990.41
2018-07-04T18:21:27.533Z,100999.25
2018-07-04T18:24:09.250Z,100998.84
2018-07-04T18:26:49.772Z,100991.96
2018-07-04T18:29:31.084Z,100999.70
2018-07-04T18:32:11.604Z,100989.52
2018-07-04T18:34:52.507Z,100999.66
2018-07-04T18:37:33.121Z,100996.37
2018-07-04T18:40:14.520Z,101002.08
2018-07-04T18:42:55.528Z,100995.66
2018-07-04T18:45:36.048Z,100992.80
2018-07-04T18:48:16.697Z,101001.73
2018-07-04T18:50:58.956Z,100997.00
2018-07-04T18:53:39.482Z,100994.55
2018-07-04T18:56:20.667Z,100998.25
2018-07-04T18:59:01.157Z,101007.09
2018-07-04T19:01:42.716Z,101013.31
2018-07-04T19:04:23.718Z,101012.70
2018-07-04T19:07:05.317Z,101005.42
2018-07-04T19:09:45.799Z,101013.09
2018-07-04T19:12:28.290Z,101011.44
2018-07-04T19:15:08.783Z,101009.00
2018-07-04T19:17:50.146Z,101006.27
2018-07-04T19:20:30.561Z,101010.58
2018-07-04T19:23:11.880Z,101014.45
2018-07-04T19:25:53.052Z,101015.23
2018-07-04T19:28:34.386Z,101018.73
2018-07-04T19:31:16.908Z,101011.97
2018-07-04T19:33:57.831Z,101012.98
2018-07-04T19:36:38.457Z,101020.73
2018-07-04T19:39:20.247Z,101013.49
2018-07-04T19:42:01.330Z,101014.05
2018-07-04T19:44:42.207Z,101005.69
2018-07-04T19:47:24.017Z,101005.05
2018-07-04T19:50:04.623Z,101007.27
2018-07-04T19:52:44.981Z,101003.19
2018-07-04T19:55:25.844Z,101006.75
2018-07-04T19:58:06.344Z,101008.59
2018-07-04T20:00:46.797Z,101003.97
2018-07-04T20:03:27.562Z,100999.13
2018-07-04T20:06:08.620Z,100999.45
2018-07-04T20:08:49.676Z,101001.76
2018-07-04T20:11:30.387Z,101003.11
2018-07-04T20:14:11.132Z,101001.78
2018-07-04T20:16:51.810Z,101001.37
2018-07-04T20:19:32.311Z,100992.25
2018-07-04T20:22:12.786Z,101002.97
2018-07-04T20:24:54.499Z,100995.77
2018-07-04T20:27:35.112Z,100995.61
2018-07-04T20:30:15.500Z,101002.47
2018-07-04T20:32:56.941Z,100996.73
2018-07-04T20:35:37.772Z,100996.16
2018-07-04T20:38:19.210Z,100996.25
2018-07-04T20:41:00.364Z,100994.56
2018-07-04T20:43:42.035Z,100998.58
2018-07-04T20:46:22.854Z,100994.56
2018-07-04T20:49:04.204Z,100996.45
2018-07-04T20:51:44.920Z,101003.38
2018-07-04T20:54:25.853Z,100993.66
2018-07-04T20:57:06.419Z,100987.78
2018-07-04T20:59:46.824Z,100995.75
2018-07-04T21:02:27.904Z,100990.72
2018-07-04T21:05:08.625Z,100981.95
2018-07-04T21:07:49.504Z,100981.41
2018-07-04T21:10:30.947Z,100990.66
2018-07-04T21:13:11.425Z,100990.88
2018-07-04T21:15:52.263Z,100988.81
2018-07-04T21:18:33.054Z,100983.14
2018-07-04T21:21:14.301Z,100991.95
2018-07-04T21:23:55.036Z,100990.25
2018-07-04T21:26:35.667Z,101001.74
2018-07-04T21:29:16.264Z,101004.80
2018-07-04T21:31:57.309Z,101000.14
2018-07-04T21:34:37.913Z,101004.95
2018-07-04T21:37:18.455Z,101006.53
2018-07-04T21:39:59.836Z,101001.20
2018-07-04T21:42:40.540Z,101003.05
2018-07-04T21:45:21.540Z,101000.20
2018-07-04T21:48:02.599Z,101004.25
2018-07-04T21:50:43.303Z,100996.30
2018-07-04T21:53:24.042Z,100998.59
2018-07-04T21:56:04.722Z,101004.98
2018-07-04T21:58:46.590Z,101006.18
2018-07-04T22:01:27.435Z,101015.81
2018-07-04T22:04:08.252Z,101008.56
2018-07-04T22:06:48.724Z,101004.87
2018-07-04T22:09:29.249Z,101005.02
2018-07-04T22:12:09.661Z,101009.52
2018-07-04T22:14:50.406Z,101006.23
2018-07-04T22:17:31.170Z,101014.89
2018-07-04T22:20:11.805Z,101008.58
2018-07-04T22:22:52.348Z,101003.13
2018-07-04T22:25:33.443Z,101005.83
2018-07-04T22:28:13.726Z,100995.09
2018-07-04T22:30:54.844Z,101005.17
2018-07-04T22:33:37.250Z,100996.09
2018-07-04T22:36:18.402Z,100992.75
2018-07-04T22:38:58.887Z,100991.84
2018-07-04T22:41:39.761Z,100992.34
2018-07-04T22:44:20.363Z,100991.55
2018-07-04T22:47:01.042Z,100987.79
2018-07-04T22:49:41.494Z,100980.97
2018-07-04T22:52:23.842Z,100983.75
2018-07-04T22:55:04.239Z,100980.06
2018-07-04T22:57:44.965Z,100983.31
2018-07-04T23:00:26.874Z,100986.30
2018-07-04T23:03:07.357Z,100982.11
2018-07-04T23:05:47.930Z,100981.81
2018-07-04T23:08:29.456Z,100981.75
2018-07-04T23:11:09.918Z,100981.02
2018-07-04T23:13:51.845Z,100980.45
2018-07-04T23:16:32.418Z,100978.75
2018-07-04T23:19:13.105Z,100980.75
2018-07-04T23:21:53.821Z,100967.76
2018-07-04T23:24:34.749Z,100961.56
2018-07-04T23:27:15.411Z,100958.31
2018-07-04T23:29:56.954Z,100961.91
2018-07-04T23:32:37.429Z,100970.34
2018-07-04T23:35:19.042Z,100962.09
2018-07-04T23:37:59.554Z,100968.23
2018-07-04T23:40:40.091Z,100964.53
2018-07-04T23:43:21.239Z,100966.23
2018-07-04T23:46:02.697Z,100964.53
2018-07-04T23:48:43.273Z,100963.27
2018-07-04T23:51:24.793Z,100961.00
2018-07-04T23:54:05.201Z,100963.70
2018-07-04T23:56:47.026Z,100968.15
2018-07-04T23:59:27.775Z,100966.45
